Strona główna
METAR-TAF:

METAR-TAF

Lotnisko :

Baza lotnicza

Niederstetten, Niemcy

Szerokość geograficzna: 49-24N, Długość geograficzna: 009-58E, wysokość: 468 m

Aktualna obserwacja pogody

Raport powstał 53 minut temu, godzina 03:20 UTC
Wiatr 9 kt od południe
Temperatura 0°C
Wilgotność 74%
Ciśnienie 1016 hPa
Widzialność 10 km lub więcej
Przerywane chmury na wysokości 16000 ft
Przerywane chmury na wysokości 28000 ft

METAR: ETHN 110320Z 17009KT 9999 BKN160 BKN280 M00/M04 Q1016 BLU

czas: 05:13 (04:13 UTC)

Prognoza

Raport powstał 12 godziny i 23 minut temu, godzina 15:50 UTC
Prognoza ważna od 10 godzina 15 UTC do 10 godzina 24 UTC
Wiatr 5 kt od południowo-południowy zachód
Widzialność: 1600 m
Mało chmury na wysokości 1200 ft

TAF: ETHN 101550Z 1015/1024 21005KT 9999 NSW FEW012 CANCEL 1600

Obserwacja i prognoza pogody dla ponad 4000 lotnisk (raport METAR i TAF).

Dostępne stacje oznaczono żółtymi i czerwonymi punktami na mapie.

Najedź kursorem aby zobaczyć nazwę stacji.

Kliknij aby zobaczyć obserwacje i prognozy pogody.

Aby zmienić mapę: kliknij na zielony przycisk z czarnym krzyżykiem, aby powiększyć; na zielony przycisk z myślnikiem, aby pomniejszyć; na zielone strzałki, aby przejść do map sąsiednich.


METAR-TAF: